Sequel — WDB9234 — position and weather

sailwx.info

Track history (hours):
 
Tides and Currents Weather Stations Pressure Air Temp Water Temp Dewpoint Dewpoint Depression Visibility Wind Speed Wind Dir Waves Ship Positions

Sequel

Owner: Cannon, Jeffrey D, Ventura,, CA. More information available from US FCC via Universal Licensing System and Coast Guard Vessel Documentation Center.

Last reported at 2015-Jul-30 01:33 UTC. Time now 2015-Jul-30 23:05 UTC.
Position N 37°49' W 122°29'.

Length 14 m.

Type: Pleasure craft. MMSI: 366972180.

Date/timePositionNaut miles runAvg speedWind from/ knotsBaromVisibWave heightAir tempDewpointWater temp
2015-Jul-30 01:33N 37°49' W 122°29'1716.6
2015-Jul-30 00:33N 37°45' W 122°50'5 3.9
2015-Jul-29 23:11N 37°44' W 122°56'1 0.5
2015-Jul-29 20:18N 37°45' W 122°55'2 0.9
2015-Jul-29 18:32N 37°45' W 122°53'1 0.6
2015-Jul-29 17:08N 37°45' W 122°52'1 0.9
2015-Jul-29 16:19N 37°45' W 122°51'1 0.9
2015-Jul-29 15:31N 37°45' W 122°50'1 0.7
2015-Jul-29 13:32N 37°46' W 122°48'1 1.2
2015-Jul-29 12:33N 37°46' W 122°47'2 1.4
2015-Jul-29 11:25N 37°46' W 122°45'1 1.7
2015-Jul-29 10:33N 37°47' W 122°43'2 1.9
2015-Jul-29 09:29N 37°47' W 122°40'5 2.8
2015-Jul-29 07:33N 37°48' W 122°34'3 3.4
2015-Jul-29 06:33N 37°49' W 122°30'  
2015-Jul-26 17:19N 37°53' W 122°26'1 1.6
2015-Jul-26 16:33N 37°54' W 122°27'1 1.0
2015-Jul-26 15:32N 37°53' W 122°26'1 0.1
2015-Jul-25 16:33N 37°52' W 122°28'4 3.6
2015-Jul-25 15:33N 37°49' W 122°29'1 1.3
2015-Jul-25 14:33N 37°48' W 122°27'  
2015-Jul-23 03:06N 37°52' W 122°28'  
Track history (hours):
 
Tides and Currents Weather Stations Pressure Air Temp Water Temp Dewpoint Dewpoint Depression Visibility Wind Speed Wind Dir Waves Ship Positions

Sequel

Owner: Cannon, Jeffrey D, Ventura,, CA. More information available from US FCC via Universal Licensing System and Coast Guard Vessel Documentation Center.

Last reported at 2015-Jul-30 01:33 UTC. Time now 2015-Jul-30 23:05 UTC.
Position N 37°49' W 122°29'.

Length 14 m.

Type: Pleasure craft. MMSI: 366972180.

Date/timePositionNaut miles runAvg speedWind from/ knotsBaromVisibWave heightAir tempDewpointWater temp
2015-Jul-30 01:33N 37°49' W 122°29'1716.6
2015-Jul-30 00:33N 37°45' W 122°50'5 3.9
2015-Jul-29 23:11N 37°44' W 122°56'1 0.5
2015-Jul-29 20:18N 37°45' W 122°55'2 0.9
2015-Jul-29 18:32N 37°45' W 122°53'1 0.6
2015-Jul-29 17:08N 37°45' W 122°52'1 0.9
2015-Jul-29 16:19N 37°45' W 122°51'1 0.9
2015-Jul-29 15:31N 37°45' W 122°50'1 0.7
2015-Jul-29 13:32N 37°46' W 122°48'1 1.2
2015-Jul-29 12:33N 37°46' W 122°47'2 1.4
2015-Jul-29 11:25N 37°46' W 122°45'1 1.7
2015-Jul-29 10:33N 37°47' W 122°43'2 1.9
2015-Jul-29 09:29N 37°47' W 122°40'5 2.8
2015-Jul-29 07:33N 37°48' W 122°34'3 3.4
2015-Jul-29 06:33N 37°49' W 122°30'  
2015-Jul-26 17:19N 37°53' W 122°26'1 1.6
2015-Jul-26 16:33N 37°54' W 122°27'1 1.0
2015-Jul-26 15:32N 37°53' W 122°26'1 0.1
2015-Jul-25 16:33N 37°52' W 122°28'4 3.6
2015-Jul-25 15:33N 37°49' W 122°29'1 1.3
2015-Jul-25 14:33N 37°48' W 122°27'  
2015-Jul-23 03:06N 37°52' W 122°28'  

Dump ship's entire track history